sensor_id;sensor_type;location;lat;lon;timestamp;temperature;humidity
31542;DHT22;18152;49.986;8.646;2022-09-09T00:00:26;15.60;99.90
31542;DHT22;18152;49.986;8.646;2022-09-09T00:05:38;15.50;99.90
31542;DHT22;18152;49.986;8.646;2022-09-09T00:08:15;15.50;99.90
31542;DHT22;18152;49.986;8.646;2022-09-09T00:10:41;15.40;99.90
31542;DHT22;18152;49.986;8.646;2022-09-09T00:13:24;15.40;99.90
31542;DHT22;18152;49.986;8.646;2022-09-09T00:16:23;15.50;99.90
31542;DHT22;18152;49.986;8.646;2022-09-09T00:19:14;15.50;99.90
31542;DHT22;18152;49.986;8.646;2022-09-09T00:22:08;15.40;99.90
31542;DHT22;18152;49.986;8.646;2022-09-09T00:24:46;15.40;99.90
31542;DHT22;18152;49.986;8.646;2022-09-09T00:27:38;15.40;99.90
31542;DHT22;18152;49.986;8.646;2022-09-09T00:32:39;15.30;99.90
31542;DHT22;18152;49.986;8.646;2022-09-09T00:37:58;15.30;99.90
31542;DHT22;18152;49.986;8.646;2022-09-09T00:40:32;15.30;99.90
31542;DHT22;18152;49.986;8.646;2022-09-09T00:43:30;15.30;99.90
31542;DHT22;18152;49.986;8.646;2022-09-09T00:54:59;15.20;99.90
31542;DHT22;18152;49.986;8.646;2022-09-09T00:57:35;15.20;99.90
31542;DHT22;18152;49.986;8.646;2022-09-09T01:02:53;15.20;99.90
31542;DHT22;18152;49.986;8.646;2022-09-09T01:11:52;15.40;99.90
31542;DHT22;18152;49.986;8.646;2022-09-09T01:16:57;15.40;99.90
31542;DHT22;18152;49.986;8.646;2022-09-09T01:19:40;15.40;99.90
31542;DHT22;18152;49.986;8.646;2022-09-09T01:27:46;15.30;99.90
31542;DHT22;18152;49.986;8.646;2022-09-09T01:30:16;15.30;99.90
31542;DHT22;18152;49.986;8.646;2022-09-09T01:32:49;15.20;99.90
31542;DHT22;18152;49.986;8.646;2022-09-09T01:38:01;15.10;99.90
31542;DHT22;18152;49.986;8.646;2022-09-09T01:40:27;15.00;99.90
31542;DHT22;18152;49.986;8.646;2022-09-09T01:42:53;15.00;99.90
31542;DHT22;18152;49.986;8.646;2022-09-09T01:45:20;14.90;99.90
31542;DHT22;18152;49.986;8.646;2022-09-09T01:47:46;14.90;99.90
31542;DHT22;18152;49.986;8.646;2022-09-09T01:50:14;14.90;99.90
31542;DHT22;18152;49.986;8.646;2022-09-09T01:52:40;14.90;99.90
31542;DHT22;18152;49.986;8.646;2022-09-09T01:55:07;14.90;99.90
31542;DHT22;18152;49.986;8.646;2022-09-09T01:57:44;14.90;99.90
31542;DHT22;18152;49.986;8.646;2022-09-09T02:00:14;14.90;99.90
31542;DHT22;18152;49.986;8.646;2022-09-09T02:02:54;14.80;99.90
31542;DHT22;18152;49.986;8.646;2022-09-09T02:05:34;14.80;99.90
31542;DHT22;18152;49.986;8.646;2022-09-09T02:08:07;14.90;99.90
31542;DHT22;18152;49.986;8.646;2022-09-09T02:10:39;14.80;99.90
31542;DHT22;18152;49.986;8.646;2022-09-09T02:13:10;14.80;99.90
31542;DHT22;18152;49.986;8.646;2022-09-09T02:15:52;14.80;99.90
31542;DHT22;18152;49.986;8.646;2022-09-09T02:18:25;14.90;99.90
31542;DHT22;18152;49.986;8.646;2022-09-09T02:20:53;14.90;99.90
31542;DHT22;18152;49.986;8.646;2022-09-09T02:23:19;14.90;99.90
31542;DHT22;18152;49.986;8.646;2022-09-09T02:25:46;14.90;99.90
31542;DHT22;18152;49.986;8.646;2022-09-09T02:28:14;14.90;99.90
31542;DHT22;18152;49.986;8.646;2022-09-09T02:30:42;14.90;99.90
31542;DHT22;18152;49.986;8.646;2022-09-09T02:33:10;14.90;99.90
31542;DHT22;18152;49.986;8.646;2022-09-09T02:35:38;15.00;99.90
31542;DHT22;18152;49.986;8.646;2022-09-09T02:38:09;15.00;99.90
31542;DHT22;18152;49.986;8.646;2022-09-09T02:40:36;15.10;99.90
31542;DHT22;18152;49.986;8.646;2022-09-09T02:43:01;15.20;99.90
31542;DHT22;18152;49.986;8.646;2022-09-09T02:45:34;15.20;99.90
31542;DHT22;18152;49.986;8.646;2022-09-09T02:48:14;15.20;99.90
31542;DHT22;18152;49.986;8.646;2022-09-09T02:53:23;15.40;99.90
31542;DHT22;18152;49.986;8.646;2022-09-09T02:56:17;15.50;99.90
31542;DHT22;18152;49.986;8.646;2022-09-09T02:58:45;15.60;99.90
31542;DHT22;18152;49.986;8.646;2022-09-09T03:01:11;15.50;99.90
31542;DHT22;18152;49.986;8.646;2022-09-09T03:03:37;15.60;99.90
31542;DHT22;18152;49.986;8.646;2022-09-09T03:06:03;15.60;99.90
31542;DHT22;18152;49.986;8.646;2022-09-09T03:08:31;15.70;99.90
31542;DHT22;18152;49.986;8.646;2022-09-09T03:10:59;15.70;99.90
31542;DHT22;18152;49.986;8.646;2022-09-09T03:13:26;15.80;99.90
31542;DHT22;18152;49.986;8.646;2022-09-09T03:15:52;15.70;99.90
31542;DHT22;18152;49.986;8.646;2022-09-09T03:18:17;15.80;99.90
31542;DHT22;18152;49.986;8.646;2022-09-09T03:20:43;15.80;99.90
31542;DHT22;18152;49.986;8.646;2022-09-09T03:23:08;15.80;99.90
31542;DHT22;18152;49.986;8.646;2022-09-09T03:25:34;15.80;99.90
31542;DHT22;18152;49.986;8.646;2022-09-09T03:28:01;15.80;99.90
31542;DHT22;18152;49.986;8.646;2022-09-09T03:30:28;15.70;99.90
31542;DHT22;18152;49.986;8.646;2022-09-09T03:32:53;15.70;99.90
31542;DHT22;18152;49.986;8.646;2022-09-09T03:35:20;15.70;99.90
31542;DHT22;18152;49.986;8.646;2022-09-09T03:37:46;15.70;99.90
31542;DHT22;18152;49.986;8.646;2022-09-09T03:40:12;15.60;99.90
31542;DHT22;18152;49.986;8.646;2022-09-09T03:42:38;15.70;99.90
31542;DHT22;18152;49.986;8.646;2022-09-09T03:45:06;15.60;99.90
31542;DHT22;18152;49.986;8.646;2022-09-09T03:47:32;15.70;99.90
31542;DHT22;18152;49.986;8.646;2022-09-09T03:49:58;15.60;99.90
31542;DHT22;18152;49.986;8.646;2022-09-09T03:52:24;15.70;99.90
31542;DHT22;18152;49.986;8.646;2022-09-09T03:54:51;15.70;99.90
31542;DHT22;18152;49.986;8.646;2022-09-09T03:57:17;15.60;99.90
31542;DHT22;18152;49.986;8.646;2022-09-09T03:59:43;15.60;99.90
31542;DHT22;18152;49.986;8.646;2022-09-09T04:02:09;15.50;99.90
31542;DHT22;18152;49.986;8.646;2022-09-09T04:04:34;15.50;99.90
31542;DHT22;18152;49.986;8.646;2022-09-09T04:07:00;15.50;99.90
31542;DHT22;18152;49.986;8.646;2022-09-09T04:09:26;15.30;99.90
31542;DHT22;18152;49.986;8.646;2022-09-09T04:11:52;15.30;99.90
31542;DHT22;18152;49.986;8.646;2022-09-09T04:14:18;15.30;99.90
31542;DHT22;18152;49.986;8.646;2022-09-09T04:16:44;15.30;99.90
31542;DHT22;18152;49.986;8.646;2022-09-09T04:19:10;15.20;99.90
31542;DHT22;18152;49.986;8.646;2022-09-09T04:21:38;15.20;99.90
31542;DHT22;18152;49.986;8.646;2022-09-09T04:24:05;15.20;99.90
31542;DHT22;18152;49.986;8.646;2022-09-09T04:26:31;15.10;99.90
31542;DHT22;18152;49.986;8.646;2022-09-09T04:28:57;15.10;99.90
31542;DHT22;18152;49.986;8.646;2022-09-09T04:31:23;15.00;99.90
31542;DHT22;18152;49.986;8.646;2022-09-09T04:33:52;15.00;99.90
31542;DHT22;18152;49.986;8.646;2022-09-09T04:36:18;15.00;99.90
31542;DHT22;18152;49.986;8.646;2022-09-09T04:38:47;15.00;99.90
31542;DHT22;18152;49.986;8.646;2022-09-09T04:41:14;14.90;99.90
31542;DHT22;18152;49.986;8.646;2022-09-09T04:43:41;14.90;99.90
31542;DHT22;18152;49.986;8.646;2022-09-09T04:46:08;14.90;99.90
31542;DHT22;18152;49.986;8.646;2022-09-09T04:48:33;14.90;99.90
31542;DHT22;18152;49.986;8.646;2022-09-09T04:51:04;14.90;99.90
31542;DHT22;18152;49.986;8.646;2022-09-09T04:53:30;14.90;99.90
31542;DHT22;18152;49.986;8.646;2022-09-09T04:56:04;14.80;99.90
31542;DHT22;18152;49.986;8.646;2022-09-09T04:58:30;14.90;99.90
31542;DHT22;18152;49.986;8.646;2022-09-09T05:01:06;14.80;99.90
31542;DHT22;18152;49.986;8.646;2022-09-09T05:03:32;14.80;99.90
31542;DHT22;18152;49.986;8.646;2022-09-09T05:06:10;14.90;99.90
31542;DHT22;18152;49.986;8.646;2022-09-09T05:08:37;14.90;99.90
31542;DHT22;18152;49.986;8.646;2022-09-09T05:11:14;14.90;99.90
31542;DHT22;18152;49.986;8.646;2022-09-09T05:13:40;14.80;99.90
31542;DHT22;18152;49.986;8.646;2022-09-09T05:16:06;14.80;99.90
31542;DHT22;18152;49.986;8.646;2022-09-09T05:18:31;14.90;99.90
31542;DHT22;18152;49.986;8.646;2022-09-09T05:21:00;14.90;99.90
31542;DHT22;18152;49.986;8.646;2022-09-09T05:23:25;14.90;99.90
31542;DHT22;18152;49.986;8.646;2022-09-09T05:25:56;15.00;99.90
31542;DHT22;18152;49.986;8.646;2022-09-09T05:28:22;15.10;99.90
31542;DHT22;18152;49.986;8.646;2022-09-09T05:30:58;15.10;99.90
31542;DHT22;18152;49.986;8.646;2022-09-09T05:33:25;15.30;99.90
31542;DHT22;18152;49.986;8.646;2022-09-09T05:36:02;15.20;99.90
31542;DHT22;18152;49.986;8.646;2022-09-09T05:38:28;15.50;99.90
31542;DHT22;18152;49.986;8.646;2022-09-09T05:40:54;15.50;99.90
31542;DHT22;18152;49.986;8.646;2022-09-09T05:43:21;15.50;99.90
31542;DHT22;18152;49.986;8.646;2022-09-09T05:46:08;15.60;99.90
31542;DHT22;18152;49.986;8.646;2022-09-09T05:48:42;15.60;99.90
31542;DHT22;18152;49.986;8.646;2022-09-09T05:51:10;15.50;99.90
31542;DHT22;18152;49.986;8.646;2022-09-09T05:53:41;15.60;99.90
31542;DHT22;18152;49.986;8.646;2022-09-09T05:56:12;15.70;99.90
31542;DHT22;18152;49.986;8.646;2022-09-09T05:58:40;15.60;99.90
31542;DHT22;18152;49.986;8.646;2022-09-09T06:01:13;15.60;99.90
31542;DHT22;18152;49.986;8.646;2022-09-09T06:03:40;15.60;99.90
31542;DHT22;18152;49.986;8.646;2022-09-09T06:06:12;15.60;99.90
31542;DHT22;18152;49.986;8.646;2022-09-09T06:08:41;15.70;99.90
31542;DHT22;18152;49.986;8.646;2022-09-09T06:11:14;15.80;99.90
31542;DHT22;18152;49.986;8.646;2022-09-09T06:13:41;15.90;99.90
31542;DHT22;18152;49.986;8.646;2022-09-09T06:16:12;15.90;99.90
31542;DHT22;18152;49.986;8.646;2022-09-09T06:18:39;16.00;99.90
31542;DHT22;18152;49.986;8.646;2022-09-09T06:21:06;16.00;99.90
31542;DHT22;18152;49.986;8.646;2022-09-09T06:23:33;16.20;99.90
31542;DHT22;18152;49.986;8.646;2022-09-09T06:26:05;16.40;99.90
31542;DHT22;18152;49.986;8.646;2022-09-09T06:28:33;16.50;99.90
31542;DHT22;18152;49.986;8.646;2022-09-09T06:31:00;16.70;99.90
31542;DHT22;18152;49.986;8.646;2022-09-09T06:33:26;16.90;99.90
31542;DHT22;18152;49.986;8.646;2022-09-09T06:35:52;17.20;99.90
31542;DHT22;18152;49.986;8.646;2022-09-09T06:38:18;17.10;99.90
31542;DHT22;18152;49.986;8.646;2022-09-09T06:40:54;17.30;99.90
31542;DHT22;18152;49.986;8.646;2022-09-09T06:43:24;17.50;99.90
31542;DHT22;18152;49.986;8.646;2022-09-09T06:45:57;17.40;99.90
31542;DHT22;18152;49.986;8.646;2022-09-09T06:48:23;17.50;99.90
31542;DHT22;18152;49.986;8.646;2022-09-09T06:50:49;17.20;99.90
31542;DHT22;18152;49.986;8.646;2022-09-09T06:53:18;17.10;99.90
31542;DHT22;18152;49.986;8.646;2022-09-09T06:55:45;17.30;99.90
31542;DHT22;18152;49.986;8.646;2022-09-09T06:58:10;17.30;99.90
31542;DHT22;18152;49.986;8.646;2022-09-09T07:00:36;17.10;99.90
31542;DHT22;18152;49.986;8.646;2022-09-09T07:03:05;17.10;99.90
31542;DHT22;18152;49.986;8.646;2022-09-09T07:05:31;17.10;99.90
31542;DHT22;18152;49.986;8.646;2022-09-09T07:07:57;17.10;99.90
31542;DHT22;18152;49.986;8.646;2022-09-09T07:10:23;17.10;99.90
31542;DHT22;18152;49.986;8.646;2022-09-09T07:12:52;17.00;99.90
31542;DHT22;18152;49.986;8.646;2022-09-09T07:15:18;17.00;99.90
31542;DHT22;18152;49.986;8.646;2022-09-09T07:17:44;16.80;99.90
31542;DHT22;18152;49.986;8.646;2022-09-09T07:20:10;16.90;99.90
31542;DHT22;18152;49.986;8.646;2022-09-09T07:22:36;16.80;99.90
31542;DHT22;18152;49.986;8.646;2022-09-09T07:25:03;16.90;99.90
31542;DHT22;18152;49.986;8.646;2022-09-09T07:27:28;16.80;99.90
31542;DHT22;18152;49.986;8.646;2022-09-09T07:29:54;16.70;99.90
31542;DHT22;18152;49.986;8.646;2022-09-09T07:32:20;16.70;99.90
31542;DHT22;18152;49.986;8.646;2022-09-09T07:34:45;16.80;99.90
31542;DHT22;18152;49.986;8.646;2022-09-09T07:37:12;16.80;99.90
31542;DHT22;18152;49.986;8.646;2022-09-09T07:39:39;16.80;99.90
31542;DHT22;18152;49.986;8.646;2022-09-09T07:42:04;16.90;99.90
31542;DHT22;18152;49.986;8.646;2022-09-09T07:44:30;16.90;99.90
31542;DHT22;18152;49.986;8.646;2022-09-09T07:46:57;16.90;99.90
31542;DHT22;18152;49.986;8.646;2022-09-09T07:49:23;16.90;99.90
31542;DHT22;18152;49.986;8.646;2022-09-09T07:51:49;16.80;99.90
31542;DHT22;18152;49.986;8.646;2022-09-09T07:54:17;16.90;99.90
31542;DHT22;18152;49.986;8.646;2022-09-09T07:56:46;16.80;99.90
31542;DHT22;18152;49.986;8.646;2022-09-09T07:59:12;17.00;99.90
31542;DHT22;18152;49.986;8.646;2022-09-09T08:01:40;17.10;99.90
31542;DHT22;18152;49.986;8.646;2022-09-09T08:04:09;17.20;99.90
31542;DHT22;18152;49.986;8.646;2022-09-09T08:06:39;17.20;99.90
31542;DHT22;18152;49.986;8.646;2022-09-09T08:09:06;17.20;99.90
31542;DHT22;18152;49.986;8.646;2022-09-09T08:11:33;17.20;99.90
31542;DHT22;18152;49.986;8.646;2022-09-09T08:13:59;17.40;99.90
31542;DHT22;18152;49.986;8.646;2022-09-09T08:16:27;17.50;99.90
31542;DHT22;18152;49.986;8.646;2022-09-09T08:18:53;17.60;99.90
31542;DHT22;18152;49.986;8.646;2022-09-09T08:21:24;17.80;99.90
31542;DHT22;18152;49.986;8.646;2022-09-09T08:23:52;17.80;99.90
31542;DHT22;18152;49.986;8.646;2022-09-09T08:26:39;17.70;99.90
31542;DHT22;18152;49.986;8.646;2022-09-09T08:29:07;17.80;99.90
31542;DHT22;18152;49.986;8.646;2022-09-09T08:31:35;18.00;99.90
31542;DHT22;18152;49.986;8.646;2022-09-09T08:34:03;18.10;99.90
31542;DHT22;18152;49.986;8.646;2022-09-09T08:36:31;18.20;99.90
31542;DHT22;18152;49.986;8.646;2022-09-09T08:38:59;18.30;99.90
31542;DHT22;18152;49.986;8.646;2022-09-09T08:41:30;18.30;99.90
31542;DHT22;18152;49.986;8.646;2022-09-09T08:44:07;18.30;99.90
31542;DHT22;18152;49.986;8.646;2022-09-09T08:46:42;18.00;99.90
31542;DHT22;18152;49.986;8.646;2022-09-09T08:51:54;18.10;99.90
31542;DHT22;18152;49.986;8.646;2022-09-09T08:54:20;18.20;99.90
31542;DHT22;18152;49.986;8.646;2022-09-09T08:56:47;18.10;99.90
31542;DHT22;18152;49.986;8.646;2022-09-09T08:59:16;18.10;99.90
31542;DHT22;18152;49.986;8.646;2022-09-09T09:04:59;18.40;99.90
31542;DHT22;18152;49.986;8.646;2022-09-09T09:07:52;18.70;99.90
31542;DHT22;18152;49.986;8.646;2022-09-09T09:10:39;19.00;99.90
31542;DHT22;18152;49.986;8.646;2022-09-09T09:13:17;19.00;99.90
31542;DHT22;18152;49.986;8.646;2022-09-09T09:15:44;19.30;99.90
31542;DHT22;18152;49.986;8.646;2022-09-09T09:18:13;20.00;99.90
31542;DHT22;18152;49.986;8.646;2022-09-09T09:20:53;20.20;99.90
31542;DHT22;18152;49.986;8.646;2022-09-09T09:23:23;20.20;99.90
31542;DHT22;18152;49.986;8.646;2022-09-09T09:25:50;20.00;99.90
31542;DHT22;18152;49.986;8.646;2022-09-09T09:28:23;19.70;99.90
31542;DHT22;18152;49.986;8.646;2022-09-09T09:33:16;19.00;99.90
31542;DHT22;18152;49.986;8.646;2022-09-09T09:35:49;18.80;99.90
31542;DHT22;18152;49.986;8.646;2022-09-09T09:38:21;18.80;99.90
31542;DHT22;18152;49.986;8.646;2022-09-09T09:40:53;18.70;99.90
31542;DHT22;18152;49.986;8.646;2022-09-09T09:43:34;18.90;99.90
31542;DHT22;18152;49.986;8.646;2022-09-09T09:46:03;19.20;99.90
31542;DHT22;18152;49.986;8.646;2022-09-09T09:48:28;19.60;99.90
31542;DHT22;18152;49.986;8.646;2022-09-09T09:50:55;19.50;99.90
31542;DHT22;18152;49.986;8.646;2022-09-09T09:53:27;19.40;99.90
31542;DHT22;18152;49.986;8.646;2022-09-09T09:56:06;19.60;99.90
31542;DHT22;18152;49.986;8.646;2022-09-09T09:58:46;19.50;99.90
31542;DHT22;18152;49.986;8.646;2022-09-09T10:01:26;19.30;99.90
31542;DHT22;18152;49.986;8.646;2022-09-09T10:03:57;18.90;99.90
31542;DHT22;18152;49.986;8.646;2022-09-09T10:06:33;18.70;99.90
31542;DHT22;18152;49.986;8.646;2022-09-09T10:08:59;18.60;99.90
31542;DHT22;18152;49.986;8.646;2022-09-09T10:11:43;18.40;99.90
31542;DHT22;18152;49.986;8.646;2022-09-09T10:14:20;18.40;99.90
31542;DHT22;18152;49.986;8.646;2022-09-09T10:19:30;18.30;99.90
31542;DHT22;18152;49.986;8.646;2022-09-09T10:33:30;18.10;99.90
31542;DHT22;18152;49.986;8.646;2022-09-09T10:36:20;18.00;99.90
31542;DHT22;18152;49.986;8.646;2022-09-09T10:39:33;18.90;99.90
31542;DHT22;18152;49.986;8.646;2022-09-09T10:42:05;19.80;99.90
31542;DHT22;18152;49.986;8.646;2022-09-09T10:44:42;19.80;99.90
31542;DHT22;18152;49.986;8.646;2022-09-09T10:50:03;19.70;99.90
31542;DHT22;18152;49.986;8.646;2022-09-09T10:55:50;19.70;99.90
31542;DHT22;18152;49.986;8.646;2022-09-09T10:58:38;20.10;99.90
31542;DHT22;18152;49.986;8.646;2022-09-09T11:01:20;20.00;99.90
31542;DHT22;18152;49.986;8.646;2022-09-09T11:03:53;20.20;99.90
31542;DHT22;18152;49.986;8.646;2022-09-09T11:06:25;21.40;99.90
31542;DHT22;18152;49.986;8.646;2022-09-09T11:08:54;22.00;99.90
31542;DHT22;18152;49.986;8.646;2022-09-09T11:11:52;21.50;99.90
31542;DHT22;18152;49.986;8.646;2022-09-09T11:14:39;21.00;99.90
31542;DHT22;18152;49.986;8.646;2022-09-09T11:17:18;20.80;99.90
31542;DHT22;18152;49.986;8.646;2022-09-09T11:19:45;20.30;99.90
31542;DHT22;18152;49.986;8.646;2022-09-09T11:22:36;20.10;99.90
31542;DHT22;18152;49.986;8.646;2022-09-09T11:25:15;20.00;99.90
31542;DHT22;18152;49.986;8.646;2022-09-09T11:38:48;20.80;99.90
31542;DHT22;18152;49.986;8.646;2022-09-09T11:41:17;21.20;99.90
31542;DHT22;18152;49.986;8.646;2022-09-09T11:43:51;21.80;99.90
31542;DHT22;18152;49.986;8.646;2022-09-09T11:46:21;21.40;99.90
31542;DHT22;18152;49.986;8.646;2022-09-09T11:48:59;21.10;99.90
31542;DHT22;18152;49.986;8.646;2022-09-09T11:51:27;20.70;99.90
31542;DHT22;18152;49.986;8.646;2022-09-09T11:53:55;20.40;99.90
31542;DHT22;18152;49.986;8.646;2022-09-09T11:56:45;20.20;99.90
31542;DHT22;18152;49.986;8.646;2022-09-09T11:59:29;20.00;99.90
31542;DHT22;18152;49.986;8.646;2022-09-09T12:02:08;19.70;99.90
31542;DHT22;18152;49.986;8.646;2022-09-09T12:04:40;19.60;99.90
31542;DHT22;18152;49.986;8.646;2022-09-09T12:09:50;19.40;99.90
31542;DHT22;18152;49.986;8.646;2022-09-09T12:17:54;19.40;99.90
31542;DHT22;18152;49.986;8.646;2022-09-09T12:28:21;19.10;99.90
31542;DHT22;18152;49.986;8.646;2022-09-09T12:31:06;18.90;99.90
31542;DHT22;18152;49.986;8.646;2022-09-09T12:33:39;18.70;99.90
31542;DHT22;18152;49.986;8.646;2022-09-09T12:36:13;18.60;99.90
31542;DHT22;18152;49.986;8.646;2022-09-09T12:38:41;18.50;99.90
31542;DHT22;18152;49.986;8.646;2022-09-09T12:41:28;18.30;99.90
31542;DHT22;18152;49.986;8.646;2022-09-09T12:44:09;18.30;99.90
31542;DHT22;18152;49.986;8.646;2022-09-09T12:46:40;18.10;99.90
31542;DHT22;18152;49.986;8.646;2022-09-09T12:49:32;18.00;99.90
31542;DHT22;18152;49.986;8.646;2022-09-09T12:52:02;18.00;99.90
31542;DHT22;18152;49.986;8.646;2022-09-09T12:54:31;17.90;99.90
31542;DHT22;18152;49.986;8.646;2022-09-09T12:56:58;17.90;99.90
31542;DHT22;18152;49.986;8.646;2022-09-09T12:59:26;17.90;99.90
31542;DHT22;18152;49.986;8.646;2022-09-09T13:01:56;17.90;99.90
31542;DHT22;18152;49.986;8.646;2022-09-09T13:04:22;18.00;99.90
31542;DHT22;18152;49.986;8.646;2022-09-09T13:06:47;18.00;99.90
31542;DHT22;18152;49.986;8.646;2022-09-09T13:09:14;18.00;99.90
31542;DHT22;18152;49.986;8.646;2022-09-09T13:11:42;17.80;99.90
31542;DHT22;18152;49.986;8.646;2022-09-09T13:14:24;17.80;99.90
31542;DHT22;18152;49.986;8.646;2022-09-09T13:16:58;17.70;99.90
31542;DHT22;18152;49.986;8.646;2022-09-09T13:19:24;17.60;99.90
31542;DHT22;18152;49.986;8.646;2022-09-09T13:21:54;17.60;99.90
31542;DHT22;18152;49.986;8.646;2022-09-09T13:24:30;17.40;99.90
31542;DHT22;18152;49.986;8.646;2022-09-09T13:27:01;17.40;99.90
31542;DHT22;18152;49.986;8.646;2022-09-09T13:29:27;17.20;99.90
31542;DHT22;18152;49.986;8.646;2022-09-09T13:31:54;17.20;99.90
31542;DHT22;18152;49.986;8.646;2022-09-09T13:34:30;17.20;99.90
31542;DHT22;18152;49.986;8.646;2022-09-09T13:37:04;17.20;99.90
31542;DHT22;18152;49.986;8.646;2022-09-09T13:39:37;17.10;99.90
31542;DHT22;18152;49.986;8.646;2022-09-09T13:42:03;17.10;99.90
31542;DHT22;18152;49.986;8.646;2022-09-09T13:44:34;17.10;99.90
31542;DHT22;18152;49.986;8.646;2022-09-09T13:47:15;17.40;99.90
31542;DHT22;18152;49.986;8.646;2022-09-09T13:49:42;17.80;99.90
31542;DHT22;18152;49.986;8.646;2022-09-09T13:52:12;18.50;99.90
31542;DHT22;18152;49.986;8.646;2022-09-09T13:54:39;19.00;99.90
31542;DHT22;18152;49.986;8.646;2022-09-09T13:57:11;19.60;99.90
31542;DHT22;18152;49.986;8.646;2022-09-09T13:59:39;19.60;99.90
31542;DHT22;18152;49.986;8.646;2022-09-09T14:02:04;19.40;99.90
31542;DHT22;18152;49.986;8.646;2022-09-09T14:04:30;19.30;99.90
31542;DHT22;18152;49.986;8.646;2022-09-09T14:06:56;19.10;99.90
31542;DHT22;18152;49.986;8.646;2022-09-09T14:09:21;18.80;99.90
31542;DHT22;18152;49.986;8.646;2022-09-09T14:11:47;18.60;99.90
31542;DHT22;18152;49.986;8.646;2022-09-09T14:14:12;18.50;99.90
31542;DHT22;18152;49.986;8.646;2022-09-09T14:16:38;18.50;99.90
31542;DHT22;18152;49.986;8.646;2022-09-09T14:19:04;18.50;99.90
31542;DHT22;18152;49.986;8.646;2022-09-09T14:21:30;18.40;99.90
31542;DHT22;18152;49.986;8.646;2022-09-09T14:23:55;18.40;99.90
31542;DHT22;18152;49.986;8.646;2022-09-09T14:26:23;18.20;99.90
31542;DHT22;18152;49.986;8.646;2022-09-09T14:28:49;18.10;99.90
31542;DHT22;18152;49.986;8.646;2022-09-09T14:31:15;18.10;99.90
31542;DHT22;18152;49.986;8.646;2022-09-09T14:33:43;18.20;99.90
31542;DHT22;18152;49.986;8.646;2022-09-09T14:36:09;18.20;99.90
31542;DHT22;18152;49.986;8.646;2022-09-09T14:38:41;18.20;99.90
31542;DHT22;18152;49.986;8.646;2022-09-09T14:41:10;18.00;99.90
31542;DHT22;18152;49.986;8.646;2022-09-09T14:43:38;18.00;99.90
31542;DHT22;18152;49.986;8.646;2022-09-09T14:46:08;17.90;99.90
31542;DHT22;18152;49.986;8.646;2022-09-09T14:48:34;18.00;99.90
31542;DHT22;18152;49.986;8.646;2022-09-09T14:51:10;17.90;99.90
31542;DHT22;18152;49.986;8.646;2022-09-09T14:53:36;18.00;99.90
31542;DHT22;18152;49.986;8.646;2022-09-09T14:56:14;17.90;99.90
31542;DHT22;18152;49.986;8.646;2022-09-09T14:58:39;17.80;99.90
31542;DHT22;18152;49.986;8.646;2022-09-09T15:01:10;17.80;99.90
31542;DHT22;18152;49.986;8.646;2022-09-09T15:03:37;17.80;99.90
31542;DHT22;18152;49.986;8.646;2022-09-09T15:06:07;17.80;99.90
31542;DHT22;18152;49.986;8.646;2022-09-09T15:08:35;17.70;99.90
31542;DHT22;18152;49.986;8.646;2022-09-09T15:11:02;17.90;99.90
31542;DHT22;18152;49.986;8.646;2022-09-09T15:13:28;18.00;99.90
31542;DHT22;18152;49.986;8.646;2022-09-09T15:15:53;17.90;99.90
31542;DHT22;18152;49.986;8.646;2022-09-09T15:18:20;18.00;99.90
31542;DHT22;18152;49.986;8.646;2022-09-09T15:20:46;18.20;99.90
31542;DHT22;18152;49.986;8.646;2022-09-09T15:23:13;18.40;99.90
31542;DHT22;18152;49.986;8.646;2022-09-09T15:25:53;18.50;99.90
31542;DHT22;18152;49.986;8.646;2022-09-09T15:28:19;18.60;99.90
31542;DHT22;18152;49.986;8.646;2022-09-09T15:30:48;18.60;99.90
31542;DHT22;18152;49.986;8.646;2022-09-09T15:33:13;18.60;99.90
31542;DHT22;18152;49.986;8.646;2022-09-09T15:35:39;18.70;99.90
31542;DHT22;18152;49.986;8.646;2022-09-09T15:38:04;18.80;99.90
31542;DHT22;18152;49.986;8.646;2022-09-09T15:40:30;18.80;99.90
31542;DHT22;18152;49.986;8.646;2022-09-09T15:42:58;18.70;99.90
31542;DHT22;18152;49.986;8.646;2022-09-09T15:45:24;18.60;99.90
31542;DHT22;18152;49.986;8.646;2022-09-09T15:47:49;18.60;99.90
31542;DHT22;18152;49.986;8.646;2022-09-09T15:50:15;18.60;99.90
31542;DHT22;18152;49.986;8.646;2022-09-09T15:52:41;18.50;99.90
31542;DHT22;18152;49.986;8.646;2022-09-09T15:55:07;18.40;99.90
31542;DHT22;18152;49.986;8.646;2022-09-09T15:57:33;18.40;99.90
31542;DHT22;18152;49.986;8.646;2022-09-09T16:00:00;18.50;99.90
31542;DHT22;18152;49.986;8.646;2022-09-09T16:02:25;18.40;99.90
31542;DHT22;18152;49.986;8.646;2022-09-09T16:04:51;18.40;99.90
31542;DHT22;18152;49.986;8.646;2022-09-09T16:07:17;18.40;99.90
31542;DHT22;18152;49.986;8.646;2022-09-09T16:09:42;18.40;99.90
31542;DHT22;18152;49.986;8.646;2022-09-09T16:12:09;18.30;99.90
31542;DHT22;18152;49.986;8.646;2022-09-09T16:14:37;18.20;99.90
31542;DHT22;18152;49.986;8.646;2022-09-09T16:17:05;18.20;99.90
31542;DHT22;18152;49.986;8.646;2022-09-09T16:19:31;18.30;99.90
31542;DHT22;18152;49.986;8.646;2022-09-09T16:21:57;18.20;99.90
31542;DHT22;18152;49.986;8.646;2022-09-09T16:24:22;18.10;99.90
31542;DHT22;18152;49.986;8.646;2022-09-09T16:26:51;18.20;99.90
31542;DHT22;18152;49.986;8.646;2022-09-09T16:29:18;18.10;99.90
31542;DHT22;18152;49.986;8.646;2022-09-09T16:31:45;18.20;99.90
31542;DHT22;18152;49.986;8.646;2022-09-09T16:34:11;18.10;99.90
31542;DHT22;18152;49.986;8.646;2022-09-09T16:36:38;18.10;99.90
31542;DHT22;18152;49.986;8.646;2022-09-09T16:39:14;18.00;99.90
31542;DHT22;18152;49.986;8.646;2022-09-09T16:41:41;17.90;99.90
31542;DHT22;18152;49.986;8.646;2022-09-09T16:44:10;17.80;99.90
31542;DHT22;18152;49.986;8.646;2022-09-09T16:46:39;17.80;99.90
31542;DHT22;18152;49.986;8.646;2022-09-09T16:49:07;17.80;99.90
31542;DHT22;18152;49.986;8.646;2022-09-09T16:51:48;17.80;99.90
31542;DHT22;18152;49.986;8.646;2022-09-09T16:54:15;17.80;99.90
31542;DHT22;18152;49.986;8.646;2022-09-09T16:56:43;17.70;99.90
31542;DHT22;18152;49.986;8.646;2022-09-09T16:59:12;17.60;99.90
31542;DHT22;18152;49.986;8.646;2022-09-09T17:01:39;17.60;99.90
31542;DHT22;18152;49.986;8.646;2022-09-09T17:04:19;17.50;99.90
31542;DHT22;18152;49.986;8.646;2022-09-09T17:06:49;17.50;99.90
31542;DHT22;18152;49.986;8.646;2022-09-09T17:09:15;17.40;99.90
31542;DHT22;18152;49.986;8.646;2022-09-09T17:11:41;17.40;99.90
31542;DHT22;18152;49.986;8.646;2022-09-09T17:14:09;17.40;99.90
31542;DHT22;18152;49.986;8.646;2022-09-09T17:16:36;17.40;99.90
31542;DHT22;18152;49.986;8.646;2022-09-09T17:19:03;17.40;99.90
31542;DHT22;18152;49.986;8.646;2022-09-09T17:21:29;17.40;99.90
31542;DHT22;18152;49.986;8.646;2022-09-09T17:23:56;17.40;99.90